createdAt,value
2018-04-12T00:02:08.791Z,7.93
2018-04-12T00:04:36.311Z,8.23
2018-04-12T00:07:04.223Z,7.28
2018-04-12T00:09:32.131Z,9.30
2018-04-12T00:11:59.627Z,8.07
2018-04-12T00:14:27.148Z,7.75
2018-04-12T00:16:54.658Z,8.50
2018-04-12T00:19:22.651Z,7.22
2018-04-12T00:21:50.561Z,9.40
2018-04-12T00:24:18.084Z,9.48
2018-04-12T00:26:45.601Z,10.38
2018-04-12T00:29:13.529Z,9.23
2018-04-12T00:31:41.038Z,10.50
2018-04-12T00:34:08.563Z,8.95
2018-04-12T00:36:36.464Z,11.32
2018-04-12T00:39:04.383Z,11.15
2018-04-12T00:41:31.945Z,11.07
2018-04-12T00:43:59.857Z,12.37
2018-04-12T00:46:27.417Z,14.93
2018-04-12T00:48:54.943Z,12.30
2018-04-12T00:51:22.511Z,12.50
2018-04-12T00:54:02.066Z,13.25
2018-04-12T00:56:29.585Z,13.85
2018-04-12T00:58:58.148Z,14.77
2018-04-12T01:01:26.056Z,15.05
2018-04-12T01:03:53.595Z,16.27
2018-04-12T01:06:21.111Z,14.10
2018-04-12T01:08:49.111Z,15.15
2018-04-12T01:11:17.029Z,12.90
2018-04-12T01:13:44.570Z,14.87
2018-04-12T01:16:12.081Z,15.45
2018-04-12T01:18:39.623Z,15.40
2018-04-12T01:21:07.133Z,15.65
2018-04-12T01:23:34.665Z,17.35
2018-04-12T01:26:02.184Z,15.85
2018-04-12T01:28:29.792Z,16.90
2018-04-12T01:30:57.709Z,18.25
2018-04-12T01:33:25.224Z,19.48
2018-04-12T01:35:52.757Z,19.50
2018-04-12T01:38:20.678Z,18.48
2018-04-12T01:40:48.227Z,18.62
2018-04-12T01:43:16.132Z,21.07
2018-04-12T01:45:43.699Z,21.33
2018-04-12T01:48:11.598Z,20.02
2018-04-12T01:50:39.597Z,21.60
2018-04-12T01:53:07.503Z,22.25
2018-04-12T01:55:35.058Z,25.05
2018-04-12T01:58:02.564Z,22.70
2018-04-12T02:00:30.093Z,25.80
2018-04-12T02:02:57.588Z,26.45
2018-04-12T02:05:25.120Z,28.38
2018-04-12T02:07:52.679Z,26.10
2018-04-12T02:10:20.194Z,26.12
2018-04-12T02:12:47.704Z,30.33
2018-04-12T02:15:15.226Z,28.27
2018-04-12T02:17:42.732Z,30.88
2018-04-12T02:20:10.318Z,29.37
2018-04-12T02:22:37.827Z,30.62
2018-04-12T02:25:05.362Z,30.98
2018-04-12T02:27:32.885Z,32.10
2018-04-12T02:30:00.412Z,30.08
2018-04-12T02:32:27.929Z,30.65
2018-04-12T02:34:55.921Z,31.83
2018-04-12T02:37:23.845Z,33.58
2018-04-12T02:39:51.381Z,33.60
2018-04-12T02:42:18.883Z,33.97
2018-04-12T02:44:46.805Z,33.22
2018-04-12T02:47:14.361Z,34.35
2018-04-12T02:49:42.357Z,35.58
2018-04-12T02:52:10.259Z,36.30
2018-04-12T02:54:37.796Z,35.30
2018-04-12T02:57:05.317Z,35.42
2018-04-12T02:59:33.228Z,37.53
2018-04-12T03:02:00.757Z,35.53
2018-04-12T03:04:28.294Z,34.33
2018-04-12T03:06:55.830Z,36.47
2018-04-12T03:09:23.331Z,34.88
2018-04-12T03:11:50.857Z,36.25
2018-04-12T03:14:18.416Z,37.67
2018-04-12T03:16:46.345Z,35.55
2018-04-12T03:19:13.875Z,37.50
2018-04-12T03:21:41.395Z,36.28
2018-04-12T03:24:08.972Z,37.85
2018-04-12T03:26:36.495Z,39.00
2018-04-12T03:29:03.995Z,38.63
2018-04-12T03:31:31.510Z,39.72
2018-04-12T03:33:59.421Z,41.42
2018-04-12T03:36:26.999Z,41.65
2018-04-12T03:38:54.526Z,42.50
2018-04-12T03:41:22.051Z,42.45
2018-04-12T03:43:49.964Z,39.80
2018-04-12T03:46:17.523Z,40.50
2018-04-12T03:48:45.500Z,41.92
2018-04-12T03:51:12.973Z,42.35
2018-04-12T03:53:40.480Z,40.70
2018-04-12T03:56:08.004Z,39.97
2018-04-12T03:58:35.524Z,43.33
2018-04-12T04:01:03.149Z,42.30
2018-04-12T04:03:31.051Z,40.80
2018-04-12T04:05:58.581Z,42.83
2018-04-12T04:08:26.111Z,44.55
2018-04-12T04:10:53.785Z,43.97
2018-04-12T04:13:21.800Z,43.20
2018-04-12T04:16:00.993Z,44.40
2018-04-12T04:18:40.491Z,45.67
2018-04-12T04:21:08.037Z,44.67
2018-04-12T04:23:35.559Z,42.30
2018-04-12T04:26:03.164Z,42.25
2018-04-12T04:28:31.092Z,44.92
2018-04-12T04:30:58.612Z,44.15
2018-04-12T04:33:26.227Z,45.35
2018-04-12T04:35:54.127Z,45.50
2018-04-12T04:38:22.105Z,46.05
2018-04-12T04:40:49.599Z,44.58
2018-04-12T04:43:17.123Z,46.50
2018-04-12T04:45:44.627Z,46.65
2018-04-12T04:48:12.158Z,45.78
2018-04-12T04:50:39.689Z,47.13
2018-04-12T04:53:07.212Z,47.25
2018-04-12T04:55:35.259Z,46.72
2018-04-12T04:58:02.783Z,44.22
2018-04-12T05:00:30.380Z,45.05
2018-04-12T05:02:58.296Z,46.75
2018-04-12T05:05:25.803Z,50.33
2018-04-12T05:07:53.322Z,45.97
2018-04-12T05:10:20.841Z,45.95
2018-04-12T05:12:48.408Z,47.47
2018-04-12T05:15:16.405Z,45.83
2018-04-12T05:17:44.329Z,47.40
2018-04-12T05:20:11.884Z,47.20
2018-04-12T05:22:39.799Z,47.10
2018-04-12T05:25:07.301Z,46.58
2018-04-12T05:27:34.819Z,47.85
2018-04-12T05:30:02.336Z,47.00
2018-04-12T05:32:30.258Z,51.00
2018-04-12T05:34:57.800Z,47.70
2018-04-12T05:37:25.305Z,47.88
2018-04-12T05:39:52.811Z,48.40
2018-04-12T05:42:20.369Z,48.50
2018-04-12T05:44:48.250Z,45.67
2018-04-12T05:47:16.177Z,46.85
2018-04-12T05:49:43.690Z,46.47
2018-04-12T05:52:11.201Z,49.28
2018-04-12T05:54:39.131Z,47.40
2018-04-12T05:57:06.642Z,45.20
2018-04-12T05:59:34.172Z,49.23
2018-04-12T06:02:02.076Z,45.95
2018-04-12T06:04:29.649Z,49.30
2018-04-12T06:06:57.579Z,47.50
2018-04-12T06:09:25.104Z,44.33
2018-04-12T06:11:52.616Z,46.30
2018-04-12T06:14:20.541Z,46.67
2018-04-12T06:16:48.086Z,45.58
2018-04-12T06:19:16.004Z,42.43
2018-04-12T06:21:43.508Z,45.57
2018-04-12T06:24:11.031Z,43.25
2018-04-12T06:26:38.535Z,45.45
2018-04-12T06:29:06.465Z,45.10
2018-04-12T06:31:33.963Z,47.35
2018-04-12T06:34:01.593Z,42.05
2018-04-12T06:36:29.513Z,44.38
2018-04-12T06:38:57.049Z,43.23
2018-04-12T06:41:24.657Z,44.60
2018-04-12T06:43:52.579Z,44.13
2018-04-12T06:46:20.133Z,43.90
2018-04-12T06:48:48.055Z,43.20
2018-04-12T06:51:15.577Z,43.20
2018-04-12T06:53:43.094Z,42.63
2018-04-12T06:56:10.998Z,45.20
2018-04-12T06:58:38.517Z,42.37
2018-04-12T07:01:06.011Z,45.17
2018-04-12T07:03:33.647Z,43.60
2018-04-12T07:06:01.230Z,45.47
2018-04-12T07:08:29.150Z,45.43
2018-04-12T07:10:56.665Z,45.40
2018-04-12T07:13:24.184Z,45.67
2018-04-12T07:15:52.080Z,44.97
2018-04-12T07:18:19.978Z,43.97
2018-04-12T07:20:47.961Z,43.30
2018-04-12T07:23:15.867Z,43.90
2018-04-12T07:25:43.441Z,43.80
2018-04-12T07:28:11.448Z,43.63
2018-04-12T07:30:39.015Z,44.50
2018-04-12T07:33:06.532Z,44.00
2018-04-12T07:35:34.065Z,44.70
2018-04-12T07:38:01.578Z,42.90
2018-04-12T07:40:29.505Z,41.47
2018-04-12T07:42:57.013Z,47.13
2018-04-12T07:45:24.543Z,46.77
2018-04-12T07:47:52.445Z,42.00
2018-04-12T07:50:19.980Z,42.47
2018-04-12T07:52:47.594Z,42.97
2018-04-12T07:55:15.588Z,43.57
2018-04-12T07:57:43.519Z,41.77
2018-04-12T08:00:11.030Z,44.50
2018-04-12T08:02:38.543Z,44.20
2018-04-12T08:05:06.137Z,44.17
2018-04-12T08:07:34.064Z,42.17
2018-04-12T08:10:01.576Z,42.53
2018-04-12T08:12:29.075Z,37.00
2018-04-12T08:14:56.593Z,36.97
2018-04-12T08:17:24.116Z,42.33
2018-04-12T08:19:51.637Z,41.93
2018-04-12T08:22:19.163Z,41.87
2018-04-12T08:24:46.688Z,40.70
2018-04-12T08:27:14.199Z,38.13
2018-04-12T08:29:42.119Z,39.17
2018-04-12T08:32:09.623Z,40.80
2018-04-12T08:34:37.159Z,41.57
2018-04-12T08:37:05.064Z,42.30
2018-04-12T08:39:32.976Z,40.20
2018-04-12T08:42:00.476Z,39.27
2018-04-12T08:44:28.042Z,40.50
2018-04-12T08:46:55.550Z,37.93
2018-04-12T08:49:23.073Z,38.60
2018-04-12T08:51:50.995Z,39.83
2018-04-12T08:54:18.501Z,38.03
2018-04-12T08:56:46.025Z,37.00
2018-04-12T08:59:13.627Z,37.50
2018-04-12T09:01:41.539Z,37.40
2018-04-12T09:04:09.087Z,36.07
2018-04-12T09:06:36.604Z,36.37
2018-04-12T09:09:04.169Z,36.00
2018-04-12T09:11:32.154Z,37.83
2018-04-12T09:13:59.660Z,35.20
2018-04-12T09:16:27.581Z,32.77
2018-04-12T09:18:55.088Z,33.47
2018-04-12T09:21:22.610Z,34.40
2018-04-12T09:23:50.504Z,34.57
2018-04-12T09:26:18.492Z,31.00
2018-04-12T09:28:45.992Z,31.70
2018-04-12T09:31:13.909Z,35.23
2018-04-12T09:33:41.425Z,35.20
2018-04-12T09:36:08.947Z,31.17
2018-04-12T09:38:36.933Z,31.77
2018-04-12T09:41:04.924Z,32.57
2018-04-12T09:43:32.829Z,31.57
2018-04-12T09:46:00.347Z,32.17
2018-04-12T09:48:27.847Z,31.47
2018-04-12T09:50:55.371Z,30.40
2018-04-12T09:53:23.357Z,31.40
2018-04-12T09:55:50.877Z,30.13
2018-04-12T09:58:18.389Z,31.83
2018-04-12T10:00:51.727Z,28.50
2018-04-12T10:03:19.233Z,29.37
2018-04-12T10:05:52.520Z,29.30
2018-04-12T10:08:25.848Z,27.83
2018-04-12T10:10:53.368Z,28.30
2018-04-12T10:13:21.265Z,28.90
2018-04-12T10:15:49.186Z,28.07
2018-04-12T10:18:16.704Z,26.77
2018-04-12T10:20:44.219Z,25.47
2018-04-12T10:23:12.110Z,24.00
2018-04-12T10:25:40.014Z,25.63
2018-04-12T10:28:07.927Z,24.97
2018-04-12T10:30:35.429Z,24.43
2018-04-12T10:33:02.940Z,26.40
2018-04-12T10:35:30.441Z,25.70
2018-04-12T10:37:58.019Z,25.40
2018-04-12T10:40:25.608Z,23.40
2018-04-12T10:42:53.194Z,22.07
2018-04-12T10:45:20.688Z,23.87
2018-04-12T10:47:48.659Z,22.30
2018-04-12T10:50:16.156Z,22.07
2018-04-12T10:52:43.677Z,21.23
2018-04-12T10:55:11.182Z,20.27
2018-04-12T10:57:38.701Z,21.07
2018-04-12T11:00:06.208Z,22.20
2018-04-12T11:02:34.181Z,22.30
2018-04-12T11:05:01.826Z,22.77
2018-04-12T11:07:29.313Z,23.37
2018-04-12T11:09:56.815Z,22.10
2018-04-12T11:12:24.340Z,23.80
2018-04-12T11:14:51.912Z,23.40
2018-04-12T11:17:19.827Z,23.10
2018-04-12T11:19:47.319Z,25.30
2018-04-12T11:22:14.852Z,25.60
2018-04-12T11:24:42.352Z,24.70
2018-04-12T11:27:10.287Z,25.90
2018-04-12T11:29:37.779Z,22.60
2018-04-12T11:32:05.308Z,22.63
2018-04-12T11:34:32.948Z,22.60
2018-04-12T11:37:00.532Z,20.77
2018-04-12T11:39:28.480Z,22.17
2018-04-12T11:41:56.425Z,19.17
2018-04-12T11:44:23.931Z,19.07
2018-04-12T11:46:51.474Z,20.37
2018-04-12T11:49:18.975Z,21.07
2018-04-12T11:51:46.519Z,19.70
2018-04-12T11:54:14.425Z,18.63
2018-04-12T11:56:41.945Z,20.27
2018-04-12T11:59:09.582Z,18.17
2018-04-12T12:01:37.495Z,18.60
2018-04-12T12:04:05.039Z,17.23
2018-04-12T12:06:32.627Z,18.17
2018-04-12T12:09:00.131Z,18.27
2018-04-12T12:11:28.040Z,17.43
2018-04-12T12:13:55.561Z,19.90
2018-04-12T12:16:23.055Z,17.80
2018-04-12T12:18:50.571Z,19.67
2018-04-12T12:21:18.473Z,19.00
2018-04-12T12:23:46.008Z,18.53
2018-04-12T12:26:13.530Z,18.47
2018-04-12T12:28:41.046Z,19.07
2018-04-12T12:31:08.553Z,18.30
2018-04-12T12:33:36.081Z,18.97
2018-04-12T12:36:03.984Z,17.93
2018-04-12T12:38:31.539Z,18.40
2018-04-12T12:40:59.140Z,18.70
2018-04-12T12:43:27.129Z,19.90
2018-04-12T12:45:55.115Z,19.27
2018-04-12T12:48:22.698Z,18.70
2018-04-12T12:50:50.205Z,17.20
2018-04-12T12:53:17.725Z,18.50
2018-04-12T12:55:45.261Z,19.87
2018-04-12T12:58:13.243Z,19.23
2018-04-12T13:00:40.827Z,20.40
2018-04-12T13:03:08.347Z,20.27
2018-04-12T13:05:35.853Z,20.40
2018-04-12T13:08:03.359Z,20.37
2018-04-12T13:10:30.861Z,15.17
2018-04-12T13:12:58.809Z,17.30
2018-04-12T13:15:26.317Z,18.17
2018-04-12T13:17:53.936Z,19.50
2018-04-12T13:20:21.915Z,20.20
2018-04-12T13:22:49.457Z,18.67
2018-04-12T13:25:17.336Z,19.60
2018-04-12T13:27:44.826Z,18.83
2018-04-12T13:30:12.382Z,19.10
2018-04-12T13:32:40.369Z,19.13
2018-04-12T13:35:08.376Z,20.27
2018-04-12T13:37:36.356Z,20.40
2018-04-12T13:40:03.863Z,18.97
2018-04-12T13:42:31.369Z,17.43
2018-04-12T13:44:58.894Z,20.03
2018-04-12T13:47:26.405Z,17.80
2018-04-12T13:49:53.926Z,18.60
2018-04-12T13:52:23.291Z,19.50
2018-04-12T13:54:50.801Z,18.30
2018-04-12T13:57:18.777Z,18.70
2018-04-12T13:59:46.684Z,18.03
2018-04-12T14:02:14.575Z,17.30
2018-04-12T14:04:42.500Z,19.37
2018-04-12T14:07:09.997Z,20.13
2018-04-12T14:09:37.611Z,16.90
2018-04-12T14:12:05.121Z,19.00
2018-04-12T14:14:33.066Z,18.20
2018-04-12T14:17:00.564Z,19.47
2018-04-12T14:19:28.077Z,19.63
2018-04-12T14:21:55.574Z,20.23
2018-04-12T14:24:23.126Z,20.00
2018-04-12T14:26:50.616Z,20.17
2018-04-12T14:29:18.533Z,19.77
2018-04-12T14:31:46.087Z,19.17
2018-04-12T14:34:13.605Z,19.67
2018-04-12T14:36:41.117Z,19.50
2018-04-12T14:39:08.627Z,19.43
2018-04-12T14:41:36.129Z,21.10
2018-04-12T14:44:04.115Z,19.87
2018-04-12T14:46:31.629Z,20.50
2018-04-12T14:48:59.147Z,20.27
2018-04-12T14:51:26.671Z,20.70
2018-04-12T14:53:54.173Z,20.07
2018-04-12T14:56:22.157Z,20.13
2018-04-12T14:58:50.261Z,18.87
2018-04-12T15:01:18.184Z,21.80
2018-04-12T15:03:45.714Z,17.93
2018-04-12T15:06:13.315Z,17.13
2018-04-12T15:08:41.215Z,17.77
2018-04-12T15:11:09.200Z,18.17
2018-04-12T15:13:37.091Z,17.00
2018-04-12T15:16:04.609Z,18.03
2018-04-12T15:18:32.175Z,17.60
2018-04-12T15:21:00.161Z,19.13
2018-04-12T15:23:28.068Z,16.60
2018-04-12T15:25:55.595Z,17.47
2018-04-12T15:28:23.096Z,17.50
2018-04-12T15:30:50.607Z,16.30
2018-04-12T15:33:18.498Z,17.30
2018-04-12T15:35:46.426Z,17.93
2018-04-12T15:38:13.981Z,17.67
2018-04-12T15:40:41.970Z,17.57
2018-04-12T15:43:09.869Z,17.13
2018-04-12T15:45:37.796Z,17.87
2018-04-12T15:48:05.311Z,17.70
2018-04-12T15:50:32.921Z,17.70
2018-04-12T15:53:00.833Z,17.50
2018-04-12T15:55:28.404Z,16.57
2018-04-12T15:57:56.312Z,16.60
2018-04-12T16:00:23.828Z,16.53
2018-04-12T16:02:51.329Z,16.20
2018-04-12T16:05:18.940Z,15.97
2018-04-12T16:07:46.922Z,15.87
2018-04-12T16:10:14.536Z,15.37
2018-04-12T16:12:42.428Z,17.07
2018-04-12T16:15:10.331Z,15.67
2018-04-12T16:17:37.893Z,16.90
2018-04-12T16:20:05.881Z,15.80
2018-04-12T16:22:33.472Z,15.30
2018-04-12T16:25:01.382Z,14.77
2018-04-12T16:27:29.295Z,15.13
2018-04-12T16:29:56.806Z,14.47
2018-04-12T16:32:24.371Z,13.47
2018-04-12T16:34:51.904Z,13.33
2018-04-12T16:37:19.424Z,12.47
2018-04-12T16:39:46.918Z,11.50
2018-04-12T16:42:14.437Z,9.97
2018-04-12T16:44:41.945Z,10.60
2018-04-12T16:47:09.858Z,9.73
2018-04-12T16:49:37.436Z,8.40
2018-04-12T16:52:05.336Z,8.30
2018-04-12T16:54:32.823Z,9.30
2018-04-12T16:57:00.336Z,10.03
2018-04-12T16:59:27.841Z,9.17
2018-04-12T17:01:55.443Z,10.00
2018-04-12T17:04:22.945Z,8.13
2018-04-12T17:06:50.858Z,8.17
2018-04-12T17:09:18.347Z,9.03
2018-04-12T17:11:45.851Z,8.90
2018-04-12T17:14:13.348Z,9.83
2018-04-12T17:16:40.889Z,8.40
2018-04-12T17:19:08.384Z,8.03
2018-04-12T17:21:35.893Z,9.00
2018-04-12T17:24:03.393Z,8.80
2018-04-12T17:26:30.991Z,9.37
2018-04-12T17:28:58.474Z,8.53
2018-04-12T17:31:25.985Z,9.50
2018-04-12T17:33:53.493Z,8.90
2018-04-12T17:36:21.042Z,9.90
2018-04-12T17:38:49.021Z,9.17
2018-04-12T17:41:16.545Z,9.63
2018-04-12T17:43:44.035Z,9.20
2018-04-12T17:46:11.564Z,9.40
2018-04-12T17:48:39.156Z,8.90
2018-04-12T17:51:06.657Z,8.97
2018-04-12T17:53:34.180Z,9.27
2018-04-12T17:56:01.704Z,8.80
2018-04-12T17:58:29.301Z,9.67
2018-04-12T18:00:57.295Z,8.70
2018-04-12T18:03:25.199Z,8.63
2018-04-12T18:05:53.097Z,12.40
2018-04-12T18:08:20.652Z,25.07
2018-04-12T18:10:48.143Z,9.87
2018-04-12T18:13:15.734Z,8.77
2018-04-12T18:15:43.645Z,8.80
2018-04-12T18:18:11.195Z,8.50
2018-04-12T18:20:38.697Z,8.87
2018-04-12T18:23:06.671Z,9.43
2018-04-12T18:25:34.178Z,12.30
2018-04-12T18:28:02.108Z,11.00
2018-04-12T18:30:29.603Z,10.93
2018-04-12T18:32:57.240Z,11.13
2018-04-12T18:35:25.315Z,10.87
2018-04-12T18:37:52.833Z,9.77
2018-04-12T18:40:20.370Z,11.23
2018-04-12T18:42:47.901Z,10.33
2018-04-12T18:45:15.413Z,11.00
2018-04-12T18:47:42.939Z,11.43
2018-04-12T18:50:10.519Z,10.50
2018-04-12T18:52:38.030Z,10.77
2018-04-12T18:55:06.022Z,11.00
2018-04-12T18:57:33.949Z,10.80
2018-04-12T19:00:01.501Z,11.87
2018-04-12T19:02:29.408Z,11.43
2018-04-12T19:04:57.049Z,11.13
2018-04-12T19:07:24.581Z,12.63
2018-04-12T19:09:52.216Z,11.40
2018-04-12T19:12:19.757Z,12.03
2018-04-12T19:14:47.277Z,11.90
2018-04-12T19:17:15.096Z,11.47
2018-04-12T19:19:42.837Z,11.63
2018-04-12T19:22:10.350Z,11.20
2018-04-12T19:24:37.875Z,10.97
2018-04-12T19:27:05.847Z,11.00
2018-04-12T19:29:33.423Z,11.30
2018-04-12T19:32:00.935Z,11.23
2018-04-12T19:34:28.855Z,12.30
2018-04-12T19:36:56.356Z,12.17
2018-04-12T19:39:23.882Z,12.30
2018-04-12T19:41:51.784Z,10.87
2018-04-12T19:44:19.708Z,12.40
2018-04-12T19:46:47.217Z,11.93
2018-04-12T19:49:14.731Z,11.80
2018-04-12T19:51:42.237Z,11.70
2018-04-12T19:54:09.783Z,10.97
2018-04-12T19:56:37.290Z,12.70
2018-04-12T19:59:05.204Z,11.73
2018-04-12T20:01:32.760Z,12.20
2018-04-12T20:04:00.293Z,11.33
2018-04-12T20:06:27.852Z,11.77
2018-04-12T20:08:55.368Z,12.20
2018-04-12T20:11:22.872Z,11.67
2018-04-12T20:13:50.449Z,12.23
2018-04-12T20:16:17.911Z,12.53
2018-04-12T20:18:45.440Z,12.77
2018-04-12T20:21:12.955Z,12.80
2018-04-12T20:23:40.514Z,13.10
2018-04-12T20:26:08.013Z,12.07
2018-04-12T20:28:35.929Z,12.10
2018-04-12T20:31:03.433Z,12.07
2018-04-12T20:33:30.943Z,13.97
2018-04-12T20:35:58.450Z,13.97
2018-04-12T20:38:26.363Z,12.50
2018-04-12T20:40:53.859Z,14.40
2018-04-12T20:43:21.355Z,13.20
2018-04-12T20:45:49.010Z,13.80
2018-04-12T20:48:16.523Z,13.87
2018-04-12T20:50:44.031Z,15.80
2018-04-12T20:53:11.549Z,14.03
2018-04-12T20:55:39.476Z,14.50
2018-04-12T20:58:06.997Z,13.87
2018-04-12T21:00:34.528Z,13.67
2018-04-12T21:03:02.179Z,13.60
2018-04-12T21:05:29.696Z,13.50
2018-04-12T21:07:57.206Z,12.53
2018-04-12T21:10:24.748Z,13.00
2018-04-12T21:12:52.743Z,13.50
2018-04-12T21:15:20.727Z,15.20
2018-04-12T21:17:48.248Z,14.13
2018-04-12T21:20:15.769Z,16.40
2018-04-12T21:22:43.281Z,15.53
2018-04-12T21:25:10.799Z,13.20
2018-04-12T21:27:38.305Z,13.50
2018-04-12T21:30:05.823Z,33.93
2018-04-12T21:32:33.347Z,15.90
2018-04-12T21:35:00.877Z,13.77
2018-04-12T21:37:28.385Z,13.60
2018-04-12T21:39:55.961Z,14.40
2018-04-12T21:42:23.469Z,14.20
2018-04-12T21:44:51.379Z,13.70
2018-04-12T21:47:18.883Z,13.37
2018-04-12T21:49:46.426Z,13.60
2018-04-12T21:52:14.005Z,14.33
2018-04-12T21:54:41.587Z,14.27
2018-04-12T21:57:09.497Z,13.37
2018-04-12T21:59:37.481Z,14.63
2018-04-12T22:02:05.056Z,16.23
2018-04-12T22:04:32.635Z,15.33
2018-04-12T22:07:00.153Z,15.67
2018-04-12T22:09:27.657Z,15.47
2018-04-12T22:11:55.194Z,15.03
2018-04-12T22:14:23.091Z,15.27
2018-04-12T22:16:51.009Z,14.30
2018-04-12T22:19:18.514Z,14.93
2018-04-12T22:21:46.037Z,14.73
2018-04-12T22:24:13.535Z,15.47
2018-04-12T22:26:41.448Z,17.30
2018-04-12T22:29:09.024Z,15.97
2018-04-12T22:31:36.995Z,17.40
2018-04-12T22:34:04.491Z,15.83
2018-04-12T22:36:32.408Z,16.60
2018-04-12T22:38:59.964Z,16.00
2018-04-12T22:41:27.947Z,15.03
2018-04-12T22:43:55.463Z,15.63
2018-04-12T22:46:22.980Z,16.00
2018-04-12T22:48:50.490Z,15.30
2018-04-12T22:51:18.012Z,15.03
2018-04-12T22:53:45.511Z,16.30
2018-04-12T22:56:13.019Z,17.07
2018-04-12T22:58:40.524Z,18.50
2018-04-12T23:01:08.064Z,17.33
2018-04-12T23:03:35.566Z,16.77
2018-04-12T23:06:03.089Z,17.50
2018-04-12T23:08:30.671Z,16.97
2018-04-12T23:10:58.208Z,15.60
2018-04-12T23:13:25.710Z,18.53
2018-04-12T23:15:53.223Z,18.60
2018-04-12T23:18:20.745Z,15.17
2018-04-12T23:20:48.258Z,17.13
2018-04-12T23:23:15.769Z,17.83
2018-04-12T23:25:43.305Z,18.85
2018-04-12T23:28:10.837Z,17.87
2018-04-12T23:30:38.382Z,17.27
2018-04-12T23:33:05.886Z,19.93
2018-04-12T23:35:33.435Z,18.67
2018-04-12T23:38:00.954Z,19.47
2018-04-12T23:40:28.460Z,16.90
2018-04-12T23:42:56.379Z,17.55
2018-04-12T23:45:23.883Z,17.92
2018-04-12T23:47:51.404Z,17.23
2018-04-12T23:50:18.910Z,18.30
2018-04-12T23:52:46.819Z,17.70
2018-04-12T23:55:14.332Z,19.95
2018-04-12T23:57:41.851Z,18.23
